Terminal Aerodrome Forecast
Issued by NWS

Home | Current Version | Previous Version | Graphics & Text | Print | Product List | Glossary On
Versions: 1 2 3 4 5 6 7 8 9 10 11 12 13 14 15 16
000
FTUS41 KCLE 010500
TAFFDY
TAF
KFDY 010520Z 0106/0206 18006KT 6SM BR SCT035
      TEMPO 0108/0110 4SM BR SCT012
     FM011000 20003KT 5SM BR SCT006 BKN012
      TEMPO 0110/0113 3SM BR BKN006
     FM011400 21010KT P6SM BKN025
     FM011600 22012KT P6SM SCT045
     FM012100 23014KT P6SM VCTS BKN045CB
     FM020200 22006KT 6SM HZ VCTS BKN045CB OVC120=

USA.gov is the U.S. government's official web portal to all federal, state and local government web resources and services.